Warrensburg, Missouri
Current Conditions -  °F | °C
As of 8:15 AM on Friday 24 Oct 2014 (Local Time) from KRCM Reporting Station
Haze Haze  
Wind Chill: 54°   Ceiling: 200
Heat Index: 54°   Visibility: 1.7mi
Dew Point: 54°   Wind: 5mph
Humidity: 100%   Direction: 160°SSE
Pressure: 30.08"   Gusts: NA
Location:  38.77°N, 93.74°W
Report Text: KRCM 241315Z AUTO 16004KT 1 3/4SM BR OVC002 12/12 A3008 RMK AO2
Loading
Personal Weather Stations






























Interactive Weather Map
Tropical Storm Tracking
New forecast layout! Learn more

10-Day Weather Forecast

Advertisements
Track Severe Weather on mobile